createdAt,value
2023-05-13T00:00:53.665Z,0.96
2023-05-13T00:03:25.521Z,0.90
2023-05-13T00:05:57.660Z,0.95
2023-05-13T00:08:29.521Z,0.95
2023-05-13T00:11:01.445Z,1.08
2023-05-13T00:13:33.461Z,1.10
2023-05-13T00:16:05.379Z,0.93
2023-05-13T00:18:37.342Z,1.02
2023-05-13T00:21:09.244Z,1.40
2023-05-13T00:23:41.114Z,1.23
2023-05-13T00:26:13.027Z,1.08
2023-05-13T00:28:44.888Z,1.10
2023-05-13T00:31:16.889Z,1.00
2023-05-13T00:33:49.230Z,1.05
2023-05-13T00:36:21.142Z,1.00
2023-05-13T00:38:53.197Z,1.33
2023-05-13T00:41:25.124Z,1.25
2023-05-13T00:43:57.508Z,0.98
2023-05-13T00:46:33.439Z,1.10
2023-05-13T00:49:05.525Z,1.33
2023-05-13T00:51:37.467Z,1.20
2023-05-13T00:54:09.303Z,1.10
2023-05-13T00:56:41.112Z,1.30
2023-05-13T00:59:12.912Z,1.15
2023-05-13T01:01:50.572Z,1.10
2023-05-13T01:04:42.526Z,1.00
2023-05-13T01:07:48.334Z,1.20
2023-05-13T01:10:31.960Z,1.30
2023-05-13T01:13:10.096Z,1.10
2023-05-13T01:15:56.699Z,1.10
2023-05-13T01:18:36.916Z,1.00
2023-05-13T01:21:09.761Z,1.15
2023-05-13T01:23:41.683Z,1.02
2023-05-13T01:26:14.166Z,1.20
2023-05-13T01:28:46.551Z,1.30
2023-05-13T01:31:20.018Z,1.20
2023-05-13T01:33:52.994Z,1.15
2023-05-13T01:36:25.055Z,1.02
2023-05-13T01:38:57.208Z,1.00
2023-05-13T01:41:32.524Z,1.13
2023-05-13T01:44:04.448Z,1.30
2023-05-13T01:46:40.892Z,0.90
2023-05-13T01:49:12.988Z,1.00
2023-05-13T01:51:44.910Z,1.00
2023-05-13T01:54:16.887Z,1.13
2023-05-13T01:56:54.045Z,0.93
2023-05-13T01:59:26.139Z,0.98
2023-05-13T02:01:58.478Z,1.25
2023-05-13T02:04:32.215Z,1.35
2023-05-13T02:07:04.407Z,1.38
2023-05-13T02:09:37.806Z,1.10
2023-05-13T02:12:11.011Z,1.10
2023-05-13T02:14:46.165Z,1.48
2023-05-13T02:17:18.020Z,1.08
2023-05-13T02:19:50.459Z,1.40
2023-05-13T02:22:22.339Z,1.20
2023-05-13T02:24:54.238Z,1.27
2023-05-13T02:27:26.223Z,1.20
2023-05-13T02:29:58.365Z,0.95
2023-05-13T02:32:30.537Z,1.00
2023-05-13T02:35:02.373Z,1.10
2023-05-13T02:37:34.390Z,1.42
2023-05-13T02:40:08.754Z,1.00
2023-05-13T02:42:40.977Z,0.98
2023-05-13T02:45:13.688Z,1.20
2023-05-13T02:47:48.909Z,0.85
2023-05-13T02:50:21.793Z,1.20
2023-05-13T02:52:54.105Z,1.10
2023-05-13T02:55:26.339Z,1.60
2023-05-13T02:57:58.293Z,1.23
2023-05-13T03:00:31.104Z,1.33
2023-05-13T03:03:03.145Z,1.20
2023-05-13T03:05:35.131Z,1.30
2023-05-13T03:08:07.024Z,1.20
2023-05-13T03:10:38.942Z,1.10
2023-05-13T03:13:11.403Z,1.17
2023-05-13T03:15:44.459Z,0.95
2023-05-13T03:18:17.010Z,1.10
2023-05-13T03:20:49.173Z,1.10
2023-05-13T03:23:21.195Z,1.05
2023-05-13T03:25:54.854Z,1.13
2023-05-13T03:28:26.782Z,1.10
2023-05-13T03:30:58.760Z,1.20
2023-05-13T03:33:31.950Z,1.30
2023-05-13T03:36:04.879Z,1.13
2023-05-13T03:38:37.410Z,1.25
2023-05-13T03:41:09.364Z,1.30
2023-05-13T03:43:41.520Z,1.00
2023-05-13T03:46:16.453Z,1.05
2023-05-13T03:48:48.351Z,1.05
2023-05-13T03:51:20.954Z,1.10
2023-05-13T03:53:53.042Z,1.10
2023-05-13T03:56:25.393Z,1.15
2023-05-13T03:58:57.254Z,1.15
2023-05-13T04:01:30.162Z,1.10
2023-05-13T04:04:02.009Z,1.40
2023-05-13T04:06:36.563Z,1.25
2023-05-13T04:09:08.497Z,1.45
2023-05-13T04:11:40.687Z,1.17
2023-05-13T04:14:12.594Z,1.33
2023-05-13T04:16:44.544Z,1.10
2023-05-13T04:19:16.434Z,1.20
2023-05-13T04:21:48.297Z,1.20
2023-05-13T04:24:20.168Z,1.27
2023-05-13T04:26:54.184Z,1.00
2023-05-13T04:29:26.037Z,0.98
2023-05-13T04:31:58.033Z,1.40
2023-05-13T04:34:29.993Z,1.25
2023-05-13T04:37:02.119Z,1.42
2023-05-13T04:39:34.004Z,1.30
2023-05-13T04:42:06.353Z,1.33
2023-05-13T04:44:38.237Z,1.10
2023-05-13T04:47:10.251Z,1.02
2023-05-13T04:49:42.548Z,1.10
2023-05-13T04:52:14.785Z,1.13
2023-05-13T04:54:46.771Z,1.50
2023-05-13T04:57:18.756Z,1.20
2023-05-13T04:59:51.328Z,1.20
2023-05-13T05:02:23.832Z,1.13
2023-05-13T05:04:58.937Z,1.27
2023-05-13T05:07:31.373Z,1.23
2023-05-13T05:10:03.507Z,1.30
2023-05-13T05:12:38.143Z,1.08
2023-05-13T05:15:15.720Z,1.10
2023-05-13T05:17:49.881Z,1.05
2023-05-13T05:20:22.033Z,1.27
2023-05-13T05:22:54.781Z,1.08
2023-05-13T05:25:29.869Z,1.15
2023-05-13T05:28:04.954Z,1.13
2023-05-13T05:30:40.467Z,0.98
2023-05-13T05:33:19.933Z,1.10
2023-05-13T05:35:52.194Z,1.17
2023-05-13T05:38:26.133Z,1.20
2023-05-13T05:41:00.673Z,1.02
2023-05-13T05:43:33.291Z,1.50
2023-05-13T05:46:05.259Z,0.88
2023-05-13T05:48:37.459Z,1.17
2023-05-13T05:51:09.804Z,1.10
2023-05-13T05:53:42.335Z,1.20
2023-05-13T05:56:16.772Z,1.20
2023-05-13T05:58:52.754Z,1.10
2023-05-13T06:01:25.096Z,1.30
2023-05-13T06:03:57.378Z,1.17
2023-05-13T06:06:35.278Z,1.17
2023-05-13T06:09:07.191Z,1.17
2023-05-13T06:11:39.180Z,1.30
2023-05-13T06:14:11.192Z,1.17
2023-05-13T06:16:46.715Z,1.33
2023-05-13T06:19:20.831Z,1.17
2023-05-13T06:21:52.836Z,1.88
2023-05-13T06:24:24.743Z,1.20
2023-05-13T06:26:59.637Z,1.45
2023-05-13T06:29:33.029Z,1.02
2023-05-13T06:32:05.343Z,1.40
2023-05-13T06:34:40.092Z,1.17
2023-05-13T06:37:13.687Z,1.20
2023-05-13T06:39:48.646Z,1.05
2023-05-13T06:42:20.953Z,1.20
2023-05-13T06:45:00.812Z,1.13
2023-05-13T06:47:35.466Z,1.20
2023-05-13T06:50:08.551Z,1.00
2023-05-13T06:52:42.034Z,1.00
2023-05-13T06:55:14.067Z,1.10
2023-05-13T06:57:46.948Z,1.30
2023-05-13T07:00:19.289Z,1.33
2023-05-13T07:02:51.329Z,1.20
2023-05-13T07:05:23.361Z,1.08
2023-05-13T07:07:55.237Z,1.33
2023-05-13T07:10:27.216Z,1.30
2023-05-13T07:12:59.129Z,1.60
2023-05-13T07:15:30.998Z,1.30
2023-05-13T07:18:02.960Z,1.50
2023-05-13T16:28:43.837Z,1.70
2023-05-13T16:31:15.771Z,1.50
2023-05-13T16:33:47.855Z,1.30
2023-05-13T16:36:19.670Z,1.58
2023-05-13T16:38:51.541Z,1.20
2023-05-13T16:41:23.432Z,1.80
2023-05-13T16:43:55.296Z,1.60
2023-05-13T16:46:27.363Z,1.20
2023-05-13T16:49:00.141Z,1.30
2023-05-13T16:51:32.319Z,1.35
2023-05-13T16:54:04.348Z,1.10
2023-05-13T16:56:36.759Z,1.50
2023-05-13T16:59:09.264Z,1.25
2023-05-13T17:01:41.185Z,1.27
2023-05-13T17:04:13.117Z,1.30
2023-05-13T17:06:45.047Z,1.42
2023-05-13T17:09:16.956Z,1.23
2023-05-13T17:11:48.818Z,1.30
2023-05-13T17:14:21.438Z,1.10
2023-05-13T17:16:53.570Z,1.30
2023-05-13T17:19:25.488Z,1.40
2023-05-13T17:21:57.413Z,1.20
2023-05-13T17:24:29.573Z,1.50
2023-05-13T17:27:01.591Z,1.23
2023-05-13T17:29:33.408Z,1.23
2023-05-13T17:32:05.798Z,1.10
2023-05-13T17:34:37.703Z,1.13
2023-05-13T17:37:09.562Z,0.70
2023-05-13T17:39:41.404Z,0.80
2023-05-13T17:42:13.319Z,0.50
2023-05-13T17:44:45.268Z,0.63
2023-05-13T17:47:17.181Z,0.90
2023-05-13T17:49:49.063Z,2.95
2023-05-13T17:52:20.994Z,17.58
2023-05-13T17:54:52.912Z,3.78
2023-05-13T17:57:24.787Z,8.73
2023-05-13T17:59:57.845Z,29.50
2023-05-13T18:02:29.751Z,29.27
2023-05-13T18:05:01.947Z,17.95
2023-05-13T18:07:33.829Z,5.85
2023-05-13T18:10:06.520Z,8.75
2023-05-13T18:12:38.478Z,7.40
2023-05-13T18:15:10.510Z,2.15
2023-05-13T18:17:42.425Z,1.05
2023-05-13T18:20:14.316Z,0.70
2023-05-13T18:22:46.191Z,0.90
2023-05-13T18:25:18.151Z,1.20
2023-05-13T18:27:50.585Z,1.20
2023-05-13T18:30:22.741Z,1.33
2023-05-13T18:32:54.935Z,2.00
2023-05-13T18:35:27.030Z,2.30
2023-05-13T18:37:58.896Z,1.63
2023-05-13T18:40:30.755Z,1.67
2023-05-13T18:43:02.698Z,1.20
2023-05-13T18:45:34.582Z,1.52
2023-05-13T18:48:06.704Z,1.75
2023-05-13T18:50:38.597Z,1.52
2023-05-13T18:53:10.491Z,1.63
2023-05-13T18:55:42.944Z,2.00
2023-05-13T18:58:14.810Z,1.00
2023-05-13T19:00:46.965Z,1.35
2023-05-13T19:03:18.867Z,1.13
2023-05-13T19:05:50.826Z,1.77
2023-05-13T19:08:22.761Z,4.25
2023-05-13T19:10:54.692Z,12.80
2023-05-13T19:13:33.187Z,28.80
2023-05-13T19:16:11.525Z,4.40
2023-05-13T19:18:43.491Z,3.03
2023-05-13T19:21:15.636Z,1.88
2023-05-13T19:23:47.507Z,1.80
2023-05-13T19:26:19.430Z,1.50
2023-05-13T19:28:51.761Z,1.85
2023-05-13T19:31:24.722Z,2.00
2023-05-13T19:33:56.752Z,1.60
2023-05-13T19:36:28.644Z,1.38
2023-05-13T19:39:00.690Z,1.20
2023-05-13T19:41:34.458Z,1.70
2023-05-13T19:44:06.435Z,1.50
2023-05-13T19:46:38.411Z,2.10
2023-05-13T19:49:10.377Z,1.90
2023-05-13T19:51:42.176Z,1.30
2023-05-13T19:54:14.088Z,1.50
2023-05-13T19:56:46.263Z,1.75
2023-05-13T19:59:18.179Z,2.25
2023-05-13T20:01:50.120Z,2.25
2023-05-13T20:04:21.986Z,1.75
2023-05-13T20:06:53.906Z,2.00
2023-05-13T20:09:26.918Z,3.03
2023-05-13T20:11:58.799Z,2.90
2023-05-13T20:14:44.544Z,2.38
2023-05-13T20:17:19.086Z,2.53
2023-05-13T20:19:52.175Z,2.03
2023-05-13T20:22:24.105Z,1.80
2023-05-13T20:24:56.052Z,2.13
2023-05-13T20:27:27.944Z,2.08
2023-05-13T20:30:01.169Z,1.63
2023-05-13T20:32:33.060Z,1.80
2023-05-13T20:35:05.426Z,1.90
2023-05-13T20:37:37.346Z,1.70
2023-05-13T20:40:12.606Z,2.38
2023-05-13T20:42:44.576Z,2.13
2023-05-13T20:45:16.531Z,1.35
2023-05-13T20:47:48.536Z,1.58
2023-05-13T20:50:20.571Z,1.50
2023-05-13T20:52:53.033Z,1.55
2023-05-13T20:55:24.915Z,1.65
2023-05-13T20:57:56.791Z,1.65
2023-05-13T21:00:28.659Z,1.60
2023-05-13T21:03:00.929Z,1.88
2023-05-13T21:05:32.938Z,1.30
2023-05-13T21:08:04.973Z,1.30
2023-05-13T21:10:36.863Z,1.50
2023-05-13T21:13:08.694Z,1.30
2023-05-13T21:15:40.616Z,1.40
2023-05-13T21:18:12.581Z,1.25
2023-05-13T21:20:45.181Z,1.27
2023-05-13T21:23:19.402Z,1.40
2023-05-13T21:25:52.355Z,1.25
2023-05-13T21:28:24.230Z,1.20
2023-05-13T21:30:56.056Z,1.30
2023-05-13T21:33:28.351Z,1.40
2023-05-13T21:36:00.239Z,1.30
2023-05-13T21:38:32.130Z,1.40
2023-05-13T21:41:03.971Z,1.10
2023-05-13T21:43:35.900Z,1.15
2023-05-13T21:46:07.725Z,1.10
2023-05-13T21:48:39.617Z,1.13
2023-05-13T21:51:11.480Z,1.23
2023-05-13T21:53:43.486Z,1.17
2023-05-13T21:56:15.417Z,1.40
2023-05-13T21:58:48.815Z,1.10
2023-05-13T22:01:21.260Z,1.17
2023-05-13T22:03:53.135Z,1.20
2023-05-13T22:06:25.061Z,1.13
2023-05-13T22:08:57.177Z,1.00
2023-05-13T22:11:28.990Z,1.20
2023-05-13T22:14:00.861Z,1.15
2023-05-13T22:16:32.875Z,1.05
2023-05-13T22:19:04.946Z,1.20
2023-05-13T22:21:37.062Z,1.35
2023-05-13T22:24:08.976Z,1.25
2023-05-13T22:26:43.649Z,1.30
2023-05-13T22:29:15.510Z,1.40
2023-05-13T22:31:47.405Z,1.42
2023-05-13T22:34:19.325Z,1.15
2023-05-13T22:36:51.178Z,1.30
2023-05-13T22:39:23.089Z,1.10
2023-05-13T22:41:55.648Z,1.10
2023-05-13T22:44:27.637Z,1.00
2023-05-13T22:46:59.524Z,1.40
2023-05-13T22:49:31.529Z,0.90
2023-05-13T22:52:03.615Z,0.90
2023-05-13T22:54:35.490Z,0.95
2023-05-13T22:57:07.517Z,1.05
2023-05-13T22:59:39.385Z,1.10
2023-05-13T23:02:11.549Z,0.82
2023-05-13T23:04:43.527Z,0.80
2023-05-13T23:07:15.378Z,0.95
2023-05-13T23:09:47.276Z,0.93
2023-05-13T23:12:19.134Z,1.02
2023-05-13T23:14:51.012Z,1.00
2023-05-13T23:17:22.969Z,0.95
2023-05-13T23:19:54.980Z,1.10
2023-05-13T23:22:26.861Z,1.00
2023-05-13T23:24:58.724Z,0.90
2023-05-13T23:27:31.575Z,0.90
2023-05-13T23:30:03.671Z,0.90
2023-05-13T23:32:35.667Z,0.68
2023-05-13T23:35:08.085Z,1.25
2023-05-13T23:37:39.994Z,0.90
2023-05-13T23:40:12.269Z,0.90
2023-05-13T23:42:44.148Z,0.77
2023-05-13T23:45:16.197Z,0.95
2023-05-13T23:47:48.222Z,0.80
2023-05-13T23:50:20.162Z,0.98
2023-05-13T23:52:52.028Z,1.02
2023-05-13T23:55:23.968Z,0.90
2023-05-13T23:57:56.089Z,0.98
